sensor_id;sensor_type;location;lat;lon;timestamp;temperature;humidity
13817;DHT22;6979;52.116;5.286;2023-04-15T00:00:20;13.40;95.00
13817;DHT22;6979;52.116;5.286;2023-04-15T00:02:47;13.40;95.00
13817;DHT22;6979;52.116;5.286;2023-04-15T00:05:14;13.40;95.10
13817;DHT22;6979;52.116;5.286;2023-04-15T00:07:41;13.30;95.10
13817;DHT22;6979;52.116;5.286;2023-04-15T00:10:08;13.30;95.20
13817;DHT22;6979;52.116;5.286;2023-04-15T00:12:36;13.30;95.20
13817;DHT22;6979;52.116;5.286;2023-04-15T00:15:04;13.30;95.20
13817;DHT22;6979;52.116;5.286;2023-04-15T00:17:31;13.30;95.20
13817;DHT22;6979;52.116;5.286;2023-04-15T00:19:58;13.30;95.30
13817;DHT22;6979;52.116;5.286;2023-04-15T00:22:25;13.30;95.30
13817;DHT22;6979;52.116;5.286;2023-04-15T00:24:52;13.30;95.30
13817;DHT22;6979;52.116;5.286;2023-04-15T00:27:19;13.30;95.40
13817;DHT22;6979;52.116;5.286;2023-04-15T00:29:47;13.30;95.40
13817;DHT22;6979;52.116;5.286;2023-04-15T00:32:14;13.30;95.50
13817;DHT22;6979;52.116;5.286;2023-04-15T00:34:41;13.30;95.50
13817;DHT22;6979;52.116;5.286;2023-04-15T00:37:08;13.20;95.50
13817;DHT22;6979;52.116;5.286;2023-04-15T00:39:35;13.30;95.60
13817;DHT22;6979;52.116;5.286;2023-04-15T00:42:03;13.20;95.60
13817;DHT22;6979;52.116;5.286;2023-04-15T00:44:30;13.20;95.60
13817;DHT22;6979;52.116;5.286;2023-04-15T00:46:59;13.20;95.70
13817;DHT22;6979;52.116;5.286;2023-04-15T00:49:27;13.20;95.80
13817;DHT22;6979;52.116;5.286;2023-04-15T00:51:54;13.20;95.80
13817;DHT22;6979;52.116;5.286;2023-04-15T00:54:23;13.20;95.90
13817;DHT22;6979;52.116;5.286;2023-04-15T00:56:50;13.20;95.90
13817;DHT22;6979;52.116;5.286;2023-04-15T00:59:18;13.20;96.00
13817;DHT22;6979;52.116;5.286;2023-04-15T01:01:45;13.20;96.00
13817;DHT22;6979;52.116;5.286;2023-04-15T01:04:15;13.20;96.00
13817;DHT22;6979;52.116;5.286;2023-04-15T01:06:42;13.20;96.10
13817;DHT22;6979;52.116;5.286;2023-04-15T01:09:09;13.10;96.10
13817;DHT22;6979;52.116;5.286;2023-04-15T01:11:40;13.10;96.20
13817;DHT22;6979;52.116;5.286;2023-04-15T01:14:08;13.10;96.20
13817;DHT22;6979;52.116;5.286;2023-04-15T01:16:35;13.10;96.20
13817;DHT22;6979;52.116;5.286;2023-04-15T01:19:04;13.00;96.20
13817;DHT22;6979;52.116;5.286;2023-04-15T01:21:35;13.00;96.30
13817;DHT22;6979;52.116;5.286;2023-04-15T01:24:04;13.00;96.30
13817;DHT22;6979;52.116;5.286;2023-04-15T01:26:36;13.00;96.40
13817;DHT22;6979;52.116;5.286;2023-04-15T01:29:06;13.00;96.40
13817;DHT22;6979;52.116;5.286;2023-04-15T01:31:35;13.00;96.50
13817;DHT22;6979;52.116;5.286;2023-04-15T01:34:02;12.90;96.50
13817;DHT22;6979;52.116;5.286;2023-04-15T01:36:31;12.90;96.60
13817;DHT22;6979;52.116;5.286;2023-04-15T01:38:58;12.80;96.60
13817;DHT22;6979;52.116;5.286;2023-04-15T01:41:25;12.80;96.60
13817;DHT22;6979;52.116;5.286;2023-04-15T01:43:54;12.80;96.70
13817;DHT22;6979;52.116;5.286;2023-04-15T01:46:21;12.80;96.80
13817;DHT22;6979;52.116;5.286;2023-04-15T01:48:49;12.70;96.90
13817;DHT22;6979;52.116;5.286;2023-04-15T01:51:16;12.70;96.90
13817;DHT22;6979;52.116;5.286;2023-04-15T01:53:42;12.70;97.00
13817;DHT22;6979;52.116;5.286;2023-04-15T01:56:10;12.70;97.10
13817;DHT22;6979;52.116;5.286;2023-04-15T01:58:37;12.60;97.10
13817;DHT22;6979;52.116;5.286;2023-04-15T02:01:07;12.60;97.20
13817;DHT22;6979;52.116;5.286;2023-04-15T02:03:36;12.60;97.30
13817;DHT22;6979;52.116;5.286;2023-04-15T02:06:03;12.60;97.30
13817;DHT22;6979;52.116;5.286;2023-04-15T02:08:30;12.60;97.40
13817;DHT22;6979;52.116;5.286;2023-04-15T02:10:57;12.50;97.50
13817;DHT22;6979;52.116;5.286;2023-04-15T02:13:25;12.50;97.60
13817;DHT22;6979;52.116;5.286;2023-04-15T02:15:53;12.50;97.70
13817;DHT22;6979;52.116;5.286;2023-04-15T02:18:22;12.50;97.70
13817;DHT22;6979;52.116;5.286;2023-04-15T02:20:50;12.40;97.80
13817;DHT22;6979;52.116;5.286;2023-04-15T02:23:17;12.40;97.90
13817;DHT22;6979;52.116;5.286;2023-04-15T02:25:44;12.40;97.90
13817;DHT22;6979;52.116;5.286;2023-04-15T02:28:12;12.40;98.00
13817;DHT22;6979;52.116;5.286;2023-04-15T02:30:38;12.40;98.00
13817;DHT22;6979;52.116;5.286;2023-04-15T02:33:06;12.30;98.00
13817;DHT22;6979;52.116;5.286;2023-04-15T02:35:34;12.30;98.10
13817;DHT22;6979;52.116;5.286;2023-04-15T02:38:05;12.30;98.30
13817;DHT22;6979;52.116;5.286;2023-04-15T02:40:32;12.30;98.40
13817;DHT22;6979;52.116;5.286;2023-04-15T02:42:59;12.30;98.50
13817;DHT22;6979;52.116;5.286;2023-04-15T02:45:26;12.20;98.60
13817;DHT22;6979;52.116;5.286;2023-04-15T02:47:53;12.20;98.60
13817;DHT22;6979;52.116;5.286;2023-04-15T02:50:23;12.20;98.60
13817;DHT22;6979;52.116;5.286;2023-04-15T02:52:51;12.20;98.70
13817;DHT22;6979;52.116;5.286;2023-04-15T02:55:20;12.20;98.90
13817;DHT22;6979;52.116;5.286;2023-04-15T02:57:47;12.10;98.90
13817;DHT22;6979;52.116;5.286;2023-04-15T03:00:15;12.10;99.00
13817;DHT22;6979;52.116;5.286;2023-04-15T03:02:45;12.10;99.10
13817;DHT22;6979;52.116;5.286;2023-04-15T03:05:14;12.10;99.20
13817;DHT22;6979;52.116;5.286;2023-04-15T03:07:47;12.10;99.40
13817;DHT22;6979;52.116;5.286;2023-04-15T03:10:15;12.10;99.40
13817;DHT22;6979;52.116;5.286;2023-04-15T03:12:45;12.00;99.40
13817;DHT22;6979;52.116;5.286;2023-04-15T03:15:16;12.00;99.50
13817;DHT22;6979;52.116;5.286;2023-04-15T03:17:46;12.00;99.70
13817;DHT22;6979;52.116;5.286;2023-04-15T03:20:14;12.00;99.70
13817;DHT22;6979;52.116;5.286;2023-04-15T03:22:41;12.00;99.90
13817;DHT22;6979;52.116;5.286;2023-04-15T03:25:08;11.90;99.90
13817;DHT22;6979;52.116;5.286;2023-04-15T03:27:38;11.90;99.90
13817;DHT22;6979;52.116;5.286;2023-04-15T03:30:06;11.90;99.90
13817;DHT22;6979;52.116;5.286;2023-04-15T03:32:36;11.90;99.90
13817;DHT22;6979;52.116;5.286;2023-04-15T03:35:05;11.90;99.90
13817;DHT22;6979;52.116;5.286;2023-04-15T03:37:33;11.90;99.90
13817;DHT22;6979;52.116;5.286;2023-04-15T03:40:00;11.80;99.90
13817;DHT22;6979;52.116;5.286;2023-04-15T03:42:27;11.80;99.90
13817;DHT22;6979;52.116;5.286;2023-04-15T03:44:55;11.80;99.90
13817;DHT22;6979;52.116;5.286;2023-04-15T03:47:22;11.70;99.90
13817;DHT22;6979;52.116;5.286;2023-04-15T03:49:49;11.70;99.90
13817;DHT22;6979;52.116;5.286;2023-04-15T03:52:16;11.70;99.90
13817;DHT22;6979;52.116;5.286;2023-04-15T03:54:43;11.70;99.90
13817;DHT22;6979;52.116;5.286;2023-04-15T03:57:10;11.60;99.90
13817;DHT22;6979;52.116;5.286;2023-04-15T03:59:37;11.60;99.90
13817;DHT22;6979;52.116;5.286;2023-04-15T04:02:05;11.60;99.90
13817;DHT22;6979;52.116;5.286;2023-04-15T04:04:32;11.60;99.90
13817;DHT22;6979;52.116;5.286;2023-04-15T04:06:59;11.60;99.90
13817;DHT22;6979;52.116;5.286;2023-04-15T04:09:26;11.50;99.90
13817;DHT22;6979;52.116;5.286;2023-04-15T04:11:53;11.50;99.90
13817;DHT22;6979;52.116;5.286;2023-04-15T04:14:22;11.50;99.90
13817;DHT22;6979;52.116;5.286;2023-04-15T04:16:53;11.50;99.90
13817;DHT22;6979;52.116;5.286;2023-04-15T04:19:22;11.50;99.90
13817;DHT22;6979;52.116;5.286;2023-04-15T04:21:49;11.40;99.90
13817;DHT22;6979;52.116;5.286;2023-04-15T04:24:16;11.40;99.90
13817;DHT22;6979;52.116;5.286;2023-04-15T04:26:43;11.40;99.90
13817;DHT22;6979;52.116;5.286;2023-04-15T04:29:10;11.40;99.90
13817;DHT22;6979;52.116;5.286;2023-04-15T04:31:37;11.40;99.90
13817;DHT22;6979;52.116;5.286;2023-04-15T04:34:06;11.40;99.90
13817;DHT22;6979;52.116;5.286;2023-04-15T04:36:37;11.40;99.90
13817;DHT22;6979;52.116;5.286;2023-04-15T04:39:04;11.30;99.90
13817;DHT22;6979;52.116;5.286;2023-04-15T04:41:31;11.30;99.90
13817;DHT22;6979;52.116;5.286;2023-04-15T04:43:58;11.30;99.90
13817;DHT22;6979;52.116;5.286;2023-04-15T04:46:25;11.30;99.90
13817;DHT22;6979;52.116;5.286;2023-04-15T04:48:52;11.20;99.90
13817;DHT22;6979;52.116;5.286;2023-04-15T04:51:19;11.20;99.90
13817;DHT22;6979;52.116;5.286;2023-04-15T04:53:47;11.20;99.90
13817;DHT22;6979;52.116;5.286;2023-04-15T04:56:14;11.20;99.90
13817;DHT22;6979;52.116;5.286;2023-04-15T04:58:41;11.10;99.90
13817;DHT22;6979;52.116;5.286;2023-04-15T05:01:08;11.10;99.90
13817;DHT22;6979;52.116;5.286;2023-04-15T05:03:35;11.10;99.90
13817;DHT22;6979;52.116;5.286;2023-04-15T05:06:02;11.10;99.90
13817;DHT22;6979;52.116;5.286;2023-04-15T05:08:31;11.00;99.90
13817;DHT22;6979;52.116;5.286;2023-04-15T05:10:59;11.00;99.90
13817;DHT22;6979;52.116;5.286;2023-04-15T05:13:26;11.00;99.90
13817;DHT22;6979;52.116;5.286;2023-04-15T05:15:54;11.00;99.90
13817;DHT22;6979;52.116;5.286;2023-04-15T05:18:22;10.90;99.90
13817;DHT22;6979;52.116;5.286;2023-04-15T05:20:50;10.90;99.90
13817;DHT22;6979;52.116;5.286;2023-04-15T05:23:17;10.90;99.90
13817;DHT22;6979;52.116;5.286;2023-04-15T05:25:43;10.90;99.90
13817;DHT22;6979;52.116;5.286;2023-04-15T05:28:14;10.80;99.90
13817;DHT22;6979;52.116;5.286;2023-04-15T05:30:43;10.80;99.90
13817;DHT22;6979;52.116;5.286;2023-04-15T05:33:10;10.80;99.90
13817;DHT22;6979;52.116;5.286;2023-04-15T05:35:37;10.80;99.90
13817;DHT22;6979;52.116;5.286;2023-04-15T05:38:04;10.80;99.90
13817;DHT22;6979;52.116;5.286;2023-04-15T05:40:31;10.80;99.90
13817;DHT22;6979;52.116;5.286;2023-04-15T05:42:58;10.80;99.90
13817;DHT22;6979;52.116;5.286;2023-04-15T05:45:27;10.70;99.90
13817;DHT22;6979;52.116;5.286;2023-04-15T05:47:57;10.70;99.90
13817;DHT22;6979;52.116;5.286;2023-04-15T05:50:24;10.70;99.90
13817;DHT22;6979;52.116;5.286;2023-04-15T05:52:51;10.70;99.90
13817;DHT22;6979;52.116;5.286;2023-04-15T05:55:23;10.70;99.90
13817;DHT22;6979;52.116;5.286;2023-04-15T05:57:52;10.70;99.90
13817;DHT22;6979;52.116;5.286;2023-04-15T06:00:19;10.70;99.90
13817;DHT22;6979;52.116;5.286;2023-04-15T06:02:48;10.70;99.90
13817;DHT22;6979;52.116;5.286;2023-04-15T06:05:16;10.70;99.90
13817;DHT22;6979;52.116;5.286;2023-04-15T06:07:43;10.70;99.90
13817;DHT22;6979;52.116;5.286;2023-04-15T06:10:10;10.70;99.90
13817;DHT22;6979;52.116;5.286;2023-04-15T06:12:38;10.70;99.90
13817;DHT22;6979;52.116;5.286;2023-04-15T06:15:06;10.70;99.90
13817;DHT22;6979;52.116;5.286;2023-04-15T06:17:34;10.70;99.90
13817;DHT22;6979;52.116;5.286;2023-04-15T06:20:07;10.70;99.90
13817;DHT22;6979;52.116;5.286;2023-04-15T06:22:37;10.70;99.90
13817;DHT22;6979;52.116;5.286;2023-04-15T06:25:11;10.70;99.90
13817;DHT22;6979;52.116;5.286;2023-04-15T06:27:47;10.70;99.90
13817;DHT22;6979;52.116;5.286;2023-04-15T06:30:16;10.80;99.90
13817;DHT22;6979;52.116;5.286;2023-04-15T06:32:45;10.80;99.90
13817;DHT22;6979;52.116;5.286;2023-04-15T06:35:17;10.80;99.90
13817;DHT22;6979;52.116;5.286;2023-04-15T06:37:44;10.80;99.90
13817;DHT22;6979;52.116;5.286;2023-04-15T06:40:13;10.80;99.90
13817;DHT22;6979;52.116;5.286;2023-04-15T06:42:40;10.80;99.90
13817;DHT22;6979;52.116;5.286;2023-04-15T06:45:08;10.90;99.90
13817;DHT22;6979;52.116;5.286;2023-04-15T06:47:35;10.90;99.90
13817;DHT22;6979;52.116;5.286;2023-04-15T06:50:02;10.90;99.90
13817;DHT22;6979;52.116;5.286;2023-04-15T06:52:31;11.00;99.90
13817;DHT22;6979;52.116;5.286;2023-04-15T06:54:59;11.00;99.90
13817;DHT22;6979;52.116;5.286;2023-04-15T06:57:39;11.10;99.90
13817;DHT22;6979;52.116;5.286;2023-04-15T07:00:07;11.10;99.90
13817;DHT22;6979;52.116;5.286;2023-04-15T07:02:40;11.20;99.90
13817;DHT22;6979;52.116;5.286;2023-04-15T07:05:07;11.20;99.90
13817;DHT22;6979;52.116;5.286;2023-04-15T07:07:35;11.30;99.90
13817;DHT22;6979;52.116;5.286;2023-04-15T07:10:05;11.30;99.90
13817;DHT22;6979;52.116;5.286;2023-04-15T07:12:32;11.40;99.90
13817;DHT22;6979;52.116;5.286;2023-04-15T07:15:00;11.40;99.90
13817;DHT22;6979;52.116;5.286;2023-04-15T07:17:27;11.50;99.90
13817;DHT22;6979;52.116;5.286;2023-04-15T07:19:54;11.60;99.90
13817;DHT22;6979;52.116;5.286;2023-04-15T07:22:20;11.60;99.90
13817;DHT22;6979;52.116;5.286;2023-04-15T07:24:52;11.70;99.90
13817;DHT22;6979;52.116;5.286;2023-04-15T07:27:18;11.80;99.90
13817;DHT22;6979;52.116;5.286;2023-04-15T07:29:45;11.80;99.90
13817;DHT22;6979;52.116;5.286;2023-04-15T07:32:12;11.90;99.90
13817;DHT22;6979;52.116;5.286;2023-04-15T07:34:39;12.00;99.90
13817;DHT22;6979;52.116;5.286;2023-04-15T07:37:07;12.10;99.90
13817;DHT22;6979;52.116;5.286;2023-04-15T07:39:36;12.20;99.90
13817;DHT22;6979;52.116;5.286;2023-04-15T07:42:04;12.30;99.90
13817;DHT22;6979;52.116;5.286;2023-04-15T07:44:31;12.50;99.90
13817;DHT22;6979;52.116;5.286;2023-04-15T07:46:58;12.50;99.90
13817;DHT22;6979;52.116;5.286;2023-04-15T07:49:26;12.70;99.90
13817;DHT22;6979;52.116;5.286;2023-04-15T07:51:55;12.80;99.90
13817;DHT22;6979;52.116;5.286;2023-04-15T07:54:24;12.90;99.90
13817;DHT22;6979;52.116;5.286;2023-04-15T07:56:52;13.00;99.90
13817;DHT22;6979;52.116;5.286;2023-04-15T07:59:21;13.20;99.90
13817;DHT22;6979;52.116;5.286;2023-04-15T08:01:49;13.30;99.90
13817;DHT22;6979;52.116;5.286;2023-04-15T08:04:16;13.40;99.90
13817;DHT22;6979;52.116;5.286;2023-04-15T08:06:43;13.50;99.90
13817;DHT22;6979;52.116;5.286;2023-04-15T08:09:09;13.60;99.90
13817;DHT22;6979;52.116;5.286;2023-04-15T08:11:37;13.70;99.90
13817;DHT22;6979;52.116;5.286;2023-04-15T08:14:04;13.80;99.90
13817;DHT22;6979;52.116;5.286;2023-04-15T08:16:32;13.80;99.90
13817;DHT22;6979;52.116;5.286;2023-04-15T08:18:59;13.90;99.90
13817;DHT22;6979;52.116;5.286;2023-04-15T08:21:29;14.10;99.90
13817;DHT22;6979;52.116;5.286;2023-04-15T08:23:56;14.20;99.90
13817;DHT22;6979;52.116;5.286;2023-04-15T08:26:23;14.30;99.90
13817;DHT22;6979;52.116;5.286;2023-04-15T08:28:53;14.30;99.90
13817;DHT22;6979;52.116;5.286;2023-04-15T08:31:20;14.40;99.90
13817;DHT22;6979;52.116;5.286;2023-04-15T08:33:48;14.50;99.90
13817;DHT22;6979;52.116;5.286;2023-04-15T08:36:17;14.60;99.90
13817;DHT22;6979;52.116;5.286;2023-04-15T08:38:44;14.70;99.90
13817;DHT22;6979;52.116;5.286;2023-04-15T08:41:18;14.80;99.90
13817;DHT22;6979;52.116;5.286;2023-04-15T08:43:51;14.90;99.90
13817;DHT22;6979;52.116;5.286;2023-04-15T08:46:18;15.00;99.90
13817;DHT22;6979;52.116;5.286;2023-04-15T08:48:47;15.00;99.90
13817;DHT22;6979;52.116;5.286;2023-04-15T08:51:15;15.10;99.90
13817;DHT22;6979;52.116;5.286;2023-04-15T08:53:43;15.20;99.90
13817;DHT22;6979;52.116;5.286;2023-04-15T08:56:16;15.30;99.90
13817;DHT22;6979;52.116;5.286;2023-04-15T08:58:44;15.40;99.90
13817;DHT22;6979;52.116;5.286;2023-04-15T09:01:11;15.50;99.90
13817;DHT22;6979;52.116;5.286;2023-04-15T09:03:38;15.50;99.90
13817;DHT22;6979;52.116;5.286;2023-04-15T09:06:05;15.70;99.90
13817;DHT22;6979;52.116;5.286;2023-04-15T09:08:33;15.80;99.90
13817;DHT22;6979;52.116;5.286;2023-04-15T09:11:01;16.00;99.90
13817;DHT22;6979;52.116;5.286;2023-04-15T09:13:28;16.30;99.90
13817;DHT22;6979;52.116;5.286;2023-04-15T09:15:56;16.70;99.90
13817;DHT22;6979;52.116;5.286;2023-04-15T09:18:28;17.00;99.90
13817;DHT22;6979;52.116;5.286;2023-04-15T09:20:55;17.40;99.90
13817;DHT22;6979;52.116;5.286;2023-04-15T09:23:22;17.80;99.90
13817;DHT22;6979;52.116;5.286;2023-04-15T09:25:50;18.20;99.90
13817;DHT22;6979;52.116;5.286;2023-04-15T09:28:23;18.50;99.90
13817;DHT22;6979;52.116;5.286;2023-04-15T09:30:54;18.90;99.90
13817;DHT22;6979;52.116;5.286;2023-04-15T09:33:21;19.30;99.90
13817;DHT22;6979;52.116;5.286;2023-04-15T09:35:56;19.70;99.90
13817;DHT22;6979;52.116;5.286;2023-04-15T09:38:24;20.10;99.90
13817;DHT22;6979;52.116;5.286;2023-04-15T09:40:53;20.50;99.90
13817;DHT22;6979;52.116;5.286;2023-04-15T09:43:19;20.90;99.90
13817;DHT22;6979;52.116;5.286;2023-04-15T09:45:48;21.30;99.90
13817;DHT22;6979;52.116;5.286;2023-04-15T09:48:17;21.80;99.90
13817;DHT22;6979;52.116;5.286;2023-04-15T09:50:45;22.20;99.90
13817;DHT22;6979;52.116;5.286;2023-04-15T09:53:19;22.70;99.90
13817;DHT22;6979;52.116;5.286;2023-04-15T09:55:49;23.10;98.60
13817;DHT22;6979;52.116;5.286;2023-04-15T09:58:19;23.50;97.30
13817;DHT22;6979;52.116;5.286;2023-04-15T10:00:49;23.70;96.20
13817;DHT22;6979;52.116;5.286;2023-04-15T10:03:19;24.00;95.40
13817;DHT22;6979;52.116;5.286;2023-04-15T10:05:48;24.10;95.10
13817;DHT22;6979;52.116;5.286;2023-04-15T10:08:17;24.30;94.80
13817;DHT22;6979;52.116;5.286;2023-04-15T10:10:45;24.40;94.40
13817;DHT22;6979;52.116;5.286;2023-04-15T10:13:13;24.60;94.30
13817;DHT22;6979;52.116;5.286;2023-04-15T10:15:44;24.70;93.50
13817;DHT22;6979;52.116;5.286;2023-04-15T10:18:15;24.90;92.70
13817;DHT22;6979;52.116;5.286;2023-04-15T10:20:42;25.00;92.70
13817;DHT22;6979;52.116;5.286;2023-04-15T10:23:11;25.20;92.70
13817;DHT22;6979;52.116;5.286;2023-04-15T10:25:38;25.30;92.30
13817;DHT22;6979;52.116;5.286;2023-04-15T10:28:09;25.40;91.70
13817;DHT22;6979;52.116;5.286;2023-04-15T10:30:36;25.50;91.00
13817;DHT22;6979;52.116;5.286;2023-04-15T10:33:05;25.50;91.20
13817;DHT22;6979;52.116;5.286;2023-04-15T10:35:32;25.50;90.70
13817;DHT22;6979;52.116;5.286;2023-04-15T10:37:59;25.60;90.90
13817;DHT22;6979;52.116;5.286;2023-04-15T10:40:27;25.60;90.50
13817;DHT22;6979;52.116;5.286;2023-04-15T10:42:57;25.60;90.50
13817;DHT22;6979;52.116;5.286;2023-04-15T10:45:26;25.60;90.70
13817;DHT22;6979;52.116;5.286;2023-04-15T10:47:56;25.70;90.60
13817;DHT22;6979;52.116;5.286;2023-04-15T10:50:27;25.80;89.60
13817;DHT22;6979;52.116;5.286;2023-04-15T10:52:55;25.80;90.00
13817;DHT22;6979;52.116;5.286;2023-04-15T10:55:23;25.70;90.20
13817;DHT22;6979;52.116;5.286;2023-04-15T10:57:51;25.80;90.10
13817;DHT22;6979;52.116;5.286;2023-04-15T11:00:21;25.80;90.10
13817;DHT22;6979;52.116;5.286;2023-04-15T11:02:53;25.90;90.00
13817;DHT22;6979;52.116;5.286;2023-04-15T11:05:21;26.00;89.30
13817;DHT22;6979;52.116;5.286;2023-04-15T11:07:52;26.00;89.00
13817;DHT22;6979;52.116;5.286;2023-04-15T11:10:50;25.90;88.60
13817;DHT22;6979;52.116;5.286;2023-04-15T11:13:27;25.80;88.50
13817;DHT22;6979;52.116;5.286;2023-04-15T11:15:57;25.60;87.90
13817;DHT22;6979;52.116;5.286;2023-04-15T11:18:28;25.50;88.90
13817;DHT22;6979;52.116;5.286;2023-04-15T11:20:57;25.30;87.90
13817;DHT22;6979;52.116;5.286;2023-04-15T11:23:31;25.20;87.40
13817;DHT22;6979;52.116;5.286;2023-04-15T11:25:59;24.90;87.40
13817;DHT22;6979;52.116;5.286;2023-04-15T11:28:28;24.70;88.10
13817;DHT22;6979;52.116;5.286;2023-04-15T11:30:56;24.60;88.30
13817;DHT22;6979;52.116;5.286;2023-04-15T11:33:23;24.50;88.50
13817;DHT22;6979;52.116;5.286;2023-04-15T11:35:52;24.40;89.30
13817;DHT22;6979;52.116;5.286;2023-04-15T11:38:19;24.40;89.30
13817;DHT22;6979;52.116;5.286;2023-04-15T11:40:48;24.40;89.40
13817;DHT22;6979;52.116;5.286;2023-04-15T11:43:17;24.50;88.50
13817;DHT22;6979;52.116;5.286;2023-04-15T11:45:51;24.40;88.70
13817;DHT22;6979;52.116;5.286;2023-04-15T11:48:19;24.40;88.10
13817;DHT22;6979;52.116;5.286;2023-04-15T11:50:51;24.40;88.90
13817;DHT22;6979;52.116;5.286;2023-04-15T11:53:18;24.40;88.50
13817;DHT22;6979;52.116;5.286;2023-04-15T11:55:48;24.30;87.50
13817;DHT22;6979;52.116;5.286;2023-04-15T11:58:18;24.30;87.70
13817;DHT22;6979;52.116;5.286;2023-04-15T12:00:47;24.20;87.90
13817;DHT22;6979;52.116;5.286;2023-04-15T12:03:17;24.10;87.60
13817;DHT22;6979;52.116;5.286;2023-04-15T12:06:07;24.00;87.00
13817;DHT22;6979;52.116;5.286;2023-04-15T12:09:09;23.90;87.20
13817;DHT22;6979;52.116;5.286;2023-04-15T12:11:43;23.90;88.10
13817;DHT22;6979;52.116;5.286;2023-04-15T12:14:18;23.80;87.20
13817;DHT22;6979;52.116;5.286;2023-04-15T12:16:47;23.70;87.20
13817;DHT22;6979;52.116;5.286;2023-04-15T12:19:16;23.70;88.10
13817;DHT22;6979;52.116;5.286;2023-04-15T12:21:44;23.60;87.70
13817;DHT22;6979;52.116;5.286;2023-04-15T12:24:19;23.50;87.60
13817;DHT22;6979;52.116;5.286;2023-04-15T12:26:49;23.40;87.10
13817;DHT22;6979;52.116;5.286;2023-04-15T12:29:16;23.30;88.10
13817;DHT22;6979;52.116;5.286;2023-04-15T12:31:48;23.20;88.70
13817;DHT22;6979;52.116;5.286;2023-04-15T12:34:25;23.10;88.40
13817;DHT22;6979;52.116;5.286;2023-04-15T12:36:54;23.00;88.70
13817;DHT22;6979;52.116;5.286;2023-04-15T12:39:22;23.00;88.70
13817;DHT22;6979;52.116;5.286;2023-04-15T12:41:51;22.90;88.70
13817;DHT22;6979;52.116;5.286;2023-04-15T12:44:18;22.80;88.70
13817;DHT22;6979;52.116;5.286;2023-04-15T12:46:45;22.80;90.10
13817;DHT22;6979;52.116;5.286;2023-04-15T12:49:12;22.70;89.00
13817;DHT22;6979;52.116;5.286;2023-04-15T12:51:40;22.70;89.80
13817;DHT22;6979;52.116;5.286;2023-04-15T12:54:07;22.60;88.60
13817;DHT22;6979;52.116;5.286;2023-04-15T12:56:34;22.50;89.00
13817;DHT22;6979;52.116;5.286;2023-04-15T12:59:02;22.40;88.90
13817;DHT22;6979;52.116;5.286;2023-04-15T13:01:29;22.30;88.70
13817;DHT22;6979;52.116;5.286;2023-04-15T13:03:56;22.30;89.70
13817;DHT22;6979;52.116;5.286;2023-04-15T13:06:23;22.40;90.10
13817;DHT22;6979;52.116;5.286;2023-04-15T13:08:50;22.40;90.00
13817;DHT22;6979;52.116;5.286;2023-04-15T13:11:19;22.50;90.00
13817;DHT22;6979;52.116;5.286;2023-04-15T13:13:46;22.60;90.00
13817;DHT22;6979;52.116;5.286;2023-04-15T13:16:15;22.70;89.60
13817;DHT22;6979;52.116;5.286;2023-04-15T13:18:42;22.70;89.00
13817;DHT22;6979;52.116;5.286;2023-04-15T13:21:10;22.70;89.00
13817;DHT22;6979;52.116;5.286;2023-04-15T13:23:37;22.70;88.80
13817;DHT22;6979;52.116;5.286;2023-04-15T13:26:04;22.60;89.00
13817;DHT22;6979;52.116;5.286;2023-04-15T13:28:31;22.50;88.90
13817;DHT22;6979;52.116;5.286;2023-04-15T13:30:58;22.30;88.90
13817;DHT22;6979;52.116;5.286;2023-04-15T13:33:26;22.20;89.60
13817;DHT22;6979;52.116;5.286;2023-04-15T13:35:53;22.00;90.10
13817;DHT22;6979;52.116;5.286;2023-04-15T13:38:20;21.90;90.20
13817;DHT22;6979;52.116;5.286;2023-04-15T13:40:47;21.90;90.40
13817;DHT22;6979;52.116;5.286;2023-04-15T13:43:14;21.80;90.40
13817;DHT22;6979;52.116;5.286;2023-04-15T13:45:42;21.70;90.40
13817;DHT22;6979;52.116;5.286;2023-04-15T13:48:09;21.60;90.50
13817;DHT22;6979;52.116;5.286;2023-04-15T13:50:37;21.50;90.50
13817;DHT22;6979;52.116;5.286;2023-04-15T13:53:04;21.30;90.50
13817;DHT22;6979;52.116;5.286;2023-04-15T13:55:31;21.20;90.70
13817;DHT22;6979;52.116;5.286;2023-04-15T13:57:59;21.00;90.70
13817;DHT22;6979;52.116;5.286;2023-04-15T14:00:26;20.80;90.90
13817;DHT22;6979;52.116;5.286;2023-04-15T14:02:53;20.70;91.20
13817;DHT22;6979;52.116;5.286;2023-04-15T14:05:19;20.50;91.30
13817;DHT22;6979;52.116;5.286;2023-04-15T14:07:48;20.30;91.40
13817;DHT22;6979;52.116;5.286;2023-04-15T14:10:14;20.20;91.50
13817;DHT22;6979;52.116;5.286;2023-04-15T14:12:41;20.00;91.70
13817;DHT22;6979;52.116;5.286;2023-04-15T14:15:09;19.90;91.70
13817;DHT22;6979;52.116;5.286;2023-04-15T14:17:36;19.70;91.90
13817;DHT22;6979;52.116;5.286;2023-04-15T14:20:06;19.50;92.00
13817;DHT22;6979;52.116;5.286;2023-04-15T14:22:33;19.40;92.20
13817;DHT22;6979;52.116;5.286;2023-04-15T14:25:02;19.20;92.30
13817;DHT22;6979;52.116;5.286;2023-04-15T14:27:29;19.10;92.60
13817;DHT22;6979;52.116;5.286;2023-04-15T14:29:55;18.90;92.70
13817;DHT22;6979;52.116;5.286;2023-04-15T14:32:24;18.80;92.80
13817;DHT22;6979;52.116;5.286;2023-04-15T14:34:51;18.70;93.00
13817;DHT22;6979;52.116;5.286;2023-04-15T14:37:18;18.50;93.20
13817;DHT22;6979;52.116;5.286;2023-04-15T14:39:45;18.40;93.40
13817;DHT22;6979;52.116;5.286;2023-04-15T14:42:13;18.30;93.70
13817;DHT22;6979;52.116;5.286;2023-04-15T14:44:40;18.10;93.80
13817;DHT22;6979;52.116;5.286;2023-04-15T14:47:08;18.10;94.00
13817;DHT22;6979;52.116;5.286;2023-04-15T14:49:35;18.00;93.90
13817;DHT22;6979;52.116;5.286;2023-04-15T14:52:02;17.90;93.80
13817;DHT22;6979;52.116;5.286;2023-04-15T14:54:29;17.90;93.80
13817;DHT22;6979;52.116;5.286;2023-04-15T14:56:59;17.80;94.30
13817;DHT22;6979;52.116;5.286;2023-04-15T14:59:28;17.70;94.00
13817;DHT22;6979;52.116;5.286;2023-04-15T15:01:55;17.70;94.10
13817;DHT22;6979;52.116;5.286;2023-04-15T15:04:24;17.60;94.30
13817;DHT22;6979;52.116;5.286;2023-04-15T15:06:51;17.60;94.50
13817;DHT22;6979;52.116;5.286;2023-04-15T15:09:18;17.50;94.60
13817;DHT22;6979;52.116;5.286;2023-04-15T15:11:48;17.40;94.60
13817;DHT22;6979;52.116;5.286;2023-04-15T15:14:16;17.40;94.60
13817;DHT22;6979;52.116;5.286;2023-04-15T15:16:47;17.30;94.60
13817;DHT22;6979;52.116;5.286;2023-04-15T15:19:14;17.30;94.70
13817;DHT22;6979;52.116;5.286;2023-04-15T15:21:41;17.20;94.80
13817;DHT22;6979;52.116;5.286;2023-04-15T15:24:08;17.20;94.90
13817;DHT22;6979;52.116;5.286;2023-04-15T15:26:35;17.10;95.00
13817;DHT22;6979;52.116;5.286;2023-04-15T15:29:02;17.00;95.20
13817;DHT22;6979;52.116;5.286;2023-04-15T15:31:29;16.90;95.30
13817;DHT22;6979;52.116;5.286;2023-04-15T15:33:58;16.80;95.40
13817;DHT22;6979;52.116;5.286;2023-04-15T15:36:24;16.70;95.50
13817;DHT22;6979;52.116;5.286;2023-04-15T15:38:52;16.70;95.50
13817;DHT22;6979;52.116;5.286;2023-04-15T15:41:18;16.60;95.70
13817;DHT22;6979;52.116;5.286;2023-04-15T15:43:45;16.50;95.80
13817;DHT22;6979;52.116;5.286;2023-04-15T15:46:12;16.50;95.90
13817;DHT22;6979;52.116;5.286;2023-04-15T15:48:39;16.40;96.10
13817;DHT22;6979;52.116;5.286;2023-04-15T15:51:07;16.40;96.30